Emsdale, Canada
Current Conditions -  °F | °C
As of 1:00 AM on Wednesday 28 Jan 2015 (Local Time) from CYQA Reporting Station
Clear Clear  
Wind Chill: -6°   Ceiling: Unl
Heat Index: -6°   Visibility: 9mi
Dew Point: -8°   Wind: 3mph
Humidity: 92%   Direction: 320°NW
Pressure: 30.11"   Gusts: NA
Location:  45.53°N, 79.32°W
Report Text: CYQA 280600Z AUTO 32003KT 9SM CLR M21/M22 A3011 RMK SLP220
Loading
Personal Weather Stations






























Interactive Weather Map New forecast layout! Learn more

10-Day Weather Forecast

Advertisements
Track Severe Weather on mobile